createdAt,value
2023-03-26T00:02:08.164Z,51742.78
2023-03-26T00:04:36.734Z,51792.94
2023-03-26T00:07:06.495Z,51776.88
2023-03-26T00:09:34.924Z,51752.81
2023-03-26T00:12:03.272Z,51802.97
2023-03-26T00:14:32.664Z,51788.91
2023-03-26T00:17:01.236Z,51813.00
2023-03-26T00:19:30.138Z,51774.88
2023-03-26T00:21:58.605Z,51786.91
2023-03-26T00:24:29.858Z,51804.97
2023-03-26T00:26:59.564Z,51792.94
2023-03-26T00:29:28.730Z,51833.06
2023-03-26T00:31:57.350Z,51808.97
2023-03-26T00:34:26.838Z,51780.91
2023-03-26T00:36:55.223Z,51829.03
2023-03-26T00:39:24.350Z,51788.91
2023-03-26T00:41:54.252Z,51800.94
2023-03-26T00:44:23.111Z,51792.94
2023-03-26T00:46:51.495Z,51760.84
2023-03-26T00:49:19.868Z,51776.88
2023-03-26T00:51:48.325Z,51770.88
2023-03-26T00:54:17.337Z,51788.91
2023-03-26T00:56:45.865Z,51829.03
2023-03-26T00:59:15.708Z,51821.00
2023-03-26T01:01:44.753Z,51829.03
2023-03-26T01:04:27.506Z,51784.91
2023-03-26T01:06:59.736Z,51772.88
2023-03-26T01:09:34.522Z,51768.84
2023-03-26T01:12:06.575Z,51790.91
2023-03-26T01:14:36.753Z,51821.00
2023-03-26T01:17:07.761Z,51819.00
2023-03-26T01:19:44.642Z,51758.81
2023-03-26T01:22:17.309Z,51788.91
2023-03-26T01:24:52.937Z,51825.03
2023-03-26T01:27:38.794Z,51786.91
2023-03-26T01:30:13.296Z,51857.13
2023-03-26T01:32:51.395Z,51800.94
2023-03-26T01:35:28.282Z,51815.00
2023-03-26T01:38:18.415Z,51756.81
2023-03-26T01:40:52.891Z,51839.06
2023-03-26T01:43:29.598Z,51806.97
2023-03-26T01:46:03.549Z,51798.94
2023-03-26T01:48:36.178Z,51794.94
2023-03-26T01:51:05.804Z,51808.97
2023-03-26T01:53:38.789Z,51835.06
2023-03-26T01:56:17.664Z,51823.03
2023-03-26T01:58:59.624Z,51776.88
2023-03-26T02:01:36.531Z,51778.88
2023-03-26T02:04:12.233Z,51792.94
2023-03-26T02:06:45.751Z,51796.94
2023-03-26T02:09:18.530Z,51784.91
2023-03-26T02:11:50.570Z,51774.88
2023-03-26T02:14:19.545Z,51794.94
2023-03-26T02:16:48.083Z,51821.00
2023-03-26T02:19:21.530Z,51853.13
2023-03-26T02:21:51.876Z,51823.03
2023-03-26T02:24:21.465Z,51776.88
2023-03-26T02:26:55.870Z,51768.84
2023-03-26T02:29:26.454Z,51808.97
2023-03-26T02:31:55.363Z,51849.09
2023-03-26T02:34:23.833Z,51823.03
2023-03-26T02:36:54.641Z,51849.09
2023-03-26T02:39:23.101Z,51877.19
2023-03-26T02:41:58.839Z,51808.97
2023-03-26T02:44:28.458Z,51851.09
2023-03-26T02:46:59.555Z,51839.06
2023-03-26T02:49:48.463Z,51813.00
2023-03-26T02:52:26.264Z,51810.97
2023-03-26T02:54:57.383Z,51766.84
2023-03-26T02:57:29.016Z,51794.94
2023-03-26T02:59:57.769Z,51819.00
2023-03-26T03:02:47.981Z,51788.91
2023-03-26T03:05:32.426Z,51784.91
2023-03-26T03:08:21.900Z,51819.00
2023-03-26T03:11:09.033Z,51821.00
2023-03-26T03:13:53.671Z,51808.97
2023-03-26T03:16:28.474Z,51813.00
2023-03-26T03:18:58.901Z,51794.94
2023-03-26T03:21:36.419Z,51806.97
2023-03-26T03:24:05.472Z,51821.00
2023-03-26T03:26:37.699Z,51823.03
2023-03-26T03:29:19.393Z,51817.00
2023-03-26T03:31:48.240Z,51813.00
2023-03-26T03:34:38.427Z,51819.00
2023-03-26T03:37:07.198Z,51806.97
2023-03-26T03:39:46.620Z,51825.03
2023-03-26T03:42:19.337Z,51798.94
2023-03-26T03:44:50.021Z,51778.88
2023-03-26T03:47:45.639Z,51817.00
2023-03-26T03:50:15.791Z,51762.84
2023-03-26T03:52:59.016Z,51804.97
2023-03-26T03:55:28.538Z,51829.03
2023-03-26T03:57:58.318Z,51778.88
2023-03-26T04:00:28.655Z,51790.91
2023-03-26T04:03:17.859Z,51823.03
2023-03-26T04:05:49.474Z,51782.91
2023-03-26T04:08:18.756Z,51788.91
2023-03-26T04:10:51.709Z,51813.00
2023-03-26T04:13:39.415Z,51819.00
2023-03-26T04:16:22.302Z,51821.00
2023-03-26T04:18:51.080Z,51849.09
2023-03-26T04:21:19.951Z,51861.13
2023-03-26T04:23:49.992Z,51873.19
2023-03-26T04:26:32.754Z,51869.16
2023-03-26T04:29:11.802Z,51853.13
2023-03-26T04:31:43.124Z,51879.19
2023-03-26T04:34:24.189Z,51829.03
2023-03-26T04:37:03.736Z,51837.06
2023-03-26T04:39:36.168Z,51879.19
2023-03-26T04:42:28.651Z,51841.06
2023-03-26T04:45:10.854Z,51889.22
2023-03-26T04:47:42.775Z,51863.16
2023-03-26T04:50:12.541Z,51841.06
2023-03-26T04:52:44.989Z,51837.06
2023-03-26T04:55:35.322Z,51845.09
2023-03-26T04:58:13.962Z,51885.22
2023-03-26T05:00:55.583Z,51853.13
2023-03-26T05:03:25.652Z,51871.16
2023-03-26T05:05:56.317Z,51855.13
2023-03-26T05:08:25.224Z,51889.22
2023-03-26T05:10:54.000Z,51845.09
2023-03-26T05:13:30.610Z,51877.19
2023-03-26T05:16:03.827Z,51833.06
2023-03-26T05:18:46.450Z,51863.16
2023-03-26T05:21:15.373Z,51885.22
2023-03-26T05:23:44.163Z,51865.16
2023-03-26T05:26:20.856Z,51845.09
2023-03-26T05:28:49.678Z,51867.16
2023-03-26T05:31:28.061Z,51871.16
2023-03-26T05:34:01.291Z,51885.22
2023-03-26T05:36:30.222Z,51885.22
2023-03-26T05:39:09.073Z,51885.22
2023-03-26T05:42:03.657Z,51869.16
2023-03-26T05:44:44.752Z,51911.28
2023-03-26T05:47:23.809Z,51885.22
2023-03-26T05:49:53.813Z,51879.19
2023-03-26T05:52:22.473Z,51891.22
2023-03-26T05:55:14.096Z,51817.00
2023-03-26T05:58:01.054Z,51859.13
2023-03-26T06:01:05.845Z,51897.25
2023-03-26T06:03:54.588Z,51881.19
2023-03-26T06:06:28.406Z,51881.19
2023-03-26T06:09:02.015Z,51891.22
2023-03-26T06:11:32.792Z,51855.13
2023-03-26T06:14:02.613Z,51883.22
2023-03-26T06:16:31.366Z,51889.22
2023-03-26T06:19:26.288Z,51849.09
2023-03-26T06:22:16.773Z,51865.16
2023-03-26T06:25:17.517Z,51873.19
2023-03-26T06:28:12.213Z,51919.31
2023-03-26T06:31:02.321Z,51851.09
2023-03-26T06:33:37.578Z,51867.16
2023-03-26T06:36:07.395Z,51861.13
2023-03-26T06:38:37.732Z,51869.16
2023-03-26T06:41:08.521Z,51907.28
2023-03-26T06:43:53.858Z,51909.28
2023-03-26T06:46:57.993Z,51853.13
2023-03-26T06:49:46.366Z,51863.16
2023-03-26T06:52:33.495Z,51909.28
2023-03-26T06:55:15.345Z,51867.16
2023-03-26T06:57:49.888Z,51877.19
2023-03-26T07:00:42.211Z,51875.19
2023-03-26T07:03:29.516Z,51907.28
2023-03-26T07:06:16.851Z,51875.19
2023-03-26T07:09:04.322Z,51935.38
2023-03-26T07:11:52.824Z,51901.25
2023-03-26T07:14:39.923Z,51887.22
2023-03-26T07:17:31.914Z,51901.25
2023-03-26T07:20:05.968Z,51877.19
2023-03-26T07:22:35.660Z,51921.31
2023-03-26T07:25:23.441Z,51899.25
2023-03-26T07:28:20.421Z,51911.28
2023-03-26T07:31:19.147Z,51927.34
2023-03-26T07:34:04.015Z,51907.28
2023-03-26T07:36:53.271Z,51905.28
2023-03-26T07:39:52.415Z,51905.28
2023-03-26T07:43:04.588Z,51905.28
2023-03-26T07:45:40.223Z,51909.28
2023-03-26T07:48:25.280Z,51897.25
2023-03-26T07:51:10.363Z,51905.28
2023-03-26T07:53:51.961Z,51885.22
2023-03-26T07:56:47.221Z,51897.25
2023-03-26T07:59:50.473Z,51917.31
2023-03-26T08:02:53.900Z,51917.31
2023-03-26T08:05:48.349Z,51891.22
2023-03-26T08:08:32.447Z,51889.22
2023-03-26T08:11:41.322Z,51893.25
2023-03-26T08:14:25.285Z,51885.22
2023-03-26T08:16:57.187Z,51897.25
2023-03-26T08:19:40.668Z,51887.22
2023-03-26T08:22:26.071Z,51911.28
2023-03-26T08:25:33.202Z,51889.22
2023-03-26T08:28:21.453Z,51889.22
2023-03-26T08:30:50.294Z,51889.22
2023-03-26T08:33:32.392Z,51873.19
2023-03-26T08:36:02.590Z,51885.22
2023-03-26T08:38:31.090Z,51883.22
2023-03-26T08:41:40.989Z,51877.19
2023-03-26T08:44:40.625Z,51851.09
2023-03-26T08:47:37.622Z,51865.16
2023-03-26T08:50:31.822Z,51867.16
2023-03-26T08:53:36.437Z,51871.16
2023-03-26T08:56:25.808Z,51863.16
2023-03-26T08:59:26.392Z,51853.13
2023-03-26T09:02:20.729Z,51857.13
2023-03-26T09:05:22.272Z,51841.06
2023-03-26T09:08:26.728Z,51839.06
2023-03-26T09:11:30.642Z,51867.16
2023-03-26T09:14:40.993Z,51865.16
2023-03-26T09:17:46.248Z,51857.13
2023-03-26T09:20:55.919Z,51857.13
2023-03-26T09:23:54.566Z,51837.06
2023-03-26T09:26:27.983Z,51796.94
2023-03-26T09:29:38.490Z,51831.03
2023-03-26T09:32:48.956Z,51792.94
2023-03-26T09:35:38.258Z,51808.97
2023-03-26T09:38:13.175Z,51798.94
2023-03-26T09:40:54.987Z,51810.97
2023-03-26T09:44:03.900Z,51821.00
2023-03-26T09:46:44.117Z,51813.00
2023-03-26T09:49:39.980Z,51823.03
2023-03-26T09:52:29.136Z,51843.09
2023-03-26T09:55:27.294Z,51806.97
2023-03-26T09:58:23.217Z,51835.06
2023-03-26T10:01:05.970Z,51825.03
2023-03-26T10:03:46.868Z,51863.16
2023-03-26T10:06:33.881Z,51867.16
2023-03-26T10:09:39.369Z,51776.88
2023-03-26T10:12:19.933Z,51796.94
2023-03-26T10:14:58.058Z,51843.09
2023-03-26T10:17:37.731Z,51833.06
2023-03-26T10:20:28.566Z,51788.91
2023-03-26T10:23:09.772Z,51798.94
2023-03-26T10:25:50.506Z,51762.84
2023-03-26T10:28:44.329Z,51706.66
2023-03-26T10:31:34.310Z,51702.66
2023-03-26T10:34:28.625Z,51740.78
2023-03-26T10:37:12.463Z,51792.94
2023-03-26T10:40:10.045Z,51736.75
2023-03-26T10:43:00.805Z,51748.78
2023-03-26T10:45:41.886Z,51792.94
2023-03-26T10:48:21.411Z,51802.97
2023-03-26T10:51:16.352Z,51750.81
2023-03-26T10:53:50.570Z,51730.75
2023-03-26T10:56:30.620Z,51722.72
2023-03-26T10:59:06.443Z,51748.78
2023-03-26T11:01:43.979Z,51772.88
2023-03-26T11:04:32.503Z,51724.72
2023-03-26T11:07:16.361Z,51766.84
2023-03-26T11:09:53.858Z,51740.78
2023-03-26T11:12:29.498Z,51764.84
2023-03-26T11:15:03.246Z,51756.81
2023-03-26T11:17:48.733Z,51776.88
2023-03-26T11:20:21.828Z,51734.75
2023-03-26T11:23:11.670Z,51760.84
2023-03-26T11:25:52.767Z,51750.81
2023-03-26T11:29:04.105Z,51730.75
2023-03-26T11:31:58.808Z,51766.84
2023-03-26T11:34:32.387Z,51778.88
2023-03-26T11:37:03.998Z,51760.84
2023-03-26T11:39:42.679Z,51752.81
2023-03-26T11:42:15.338Z,51810.97
2023-03-26T11:44:56.838Z,51774.88
2023-03-26T11:47:32.998Z,51776.88
2023-03-26T11:50:07.028Z,51782.91
2023-03-26T11:52:40.453Z,51796.94
2023-03-26T11:55:13.875Z,51819.00
2023-03-26T11:57:48.213Z,51845.09
2023-03-26T12:00:21.034Z,51823.03
2023-03-26T12:02:58.358Z,51800.94
2023-03-26T12:05:33.376Z,51748.78
2023-03-26T12:08:04.445Z,51861.13
2023-03-26T12:10:41.366Z,51804.97
2023-03-26T12:13:29.985Z,51817.00
2023-03-26T12:16:00.171Z,51815.00
2023-03-26T12:18:29.539Z,51821.00
2023-03-26T12:21:08.926Z,51810.97
2023-03-26T12:23:56.022Z,51829.03
2023-03-26T12:26:37.596Z,51851.09
2023-03-26T12:29:10.899Z,51823.03
2023-03-26T12:31:52.219Z,51839.06
2023-03-26T12:34:34.608Z,51808.97
2023-03-26T12:37:04.645Z,51823.03
2023-03-26T12:40:10.817Z,51825.03
2023-03-26T12:44:46.499Z,51800.94
2023-03-26T12:45:23.930Z,51841.06
2023-03-26T12:48:04.558Z,51821.00
2023-03-26T12:50:54.948Z,51863.16
2023-03-26T12:53:49.462Z,51841.06
2023-03-26T12:56:23.850Z,51861.13
2023-03-26T12:59:19.407Z,51821.00
2023-03-26T13:01:55.546Z,51813.00
2023-03-26T13:05:05.566Z,51821.00
2023-03-26T13:07:52.653Z,51851.09
2023-03-26T13:10:41.026Z,51813.00
2023-03-26T13:13:39.080Z,51821.00
2023-03-26T13:16:14.232Z,51776.88
2023-03-26T13:18:49.090Z,51800.94
2023-03-26T13:21:28.499Z,51784.91
2023-03-26T13:24:09.131Z,51780.91
2023-03-26T13:26:52.615Z,51817.00
2023-03-26T13:29:26.905Z,51810.97
2023-03-26T13:32:07.238Z,51794.94
2023-03-26T13:34:42.369Z,51804.97
2023-03-26T13:37:28.536Z,51788.91
2023-03-26T13:40:11.327Z,51786.91
2023-03-26T13:42:52.094Z,51750.81
2023-03-26T13:45:36.403Z,51770.88
2023-03-26T13:48:13.448Z,51800.94
2023-03-26T13:50:45.539Z,51798.94
2023-03-26T13:53:19.486Z,51796.94
2023-03-26T13:55:52.573Z,51845.09
2023-03-26T13:58:26.935Z,51817.00
2023-03-26T14:01:12.389Z,51804.97
2023-03-26T14:03:51.968Z,51819.00
2023-03-26T14:06:35.386Z,51843.09
2023-03-26T14:09:10.342Z,51841.06
2023-03-26T14:11:50.053Z,51817.00
2023-03-26T14:14:39.476Z,51796.94
2023-03-26T14:17:18.218Z,51837.06
2023-03-26T14:20:25.179Z,51851.09
2023-03-26T14:23:15.172Z,51792.94
2023-03-26T14:26:11.343Z,51849.09
2023-03-26T14:29:26.109Z,51865.16
2023-03-26T14:32:06.755Z,51857.13
2023-03-26T14:35:00.428Z,51849.09
2023-03-26T14:37:54.071Z,51845.09
2023-03-26T14:40:46.510Z,51839.06
2023-03-26T14:43:44.373Z,51857.13
2023-03-26T14:46:37.889Z,51841.06
2023-03-26T14:49:36.820Z,51839.06
2023-03-26T14:52:11.836Z,51863.16
2023-03-26T14:54:48.296Z,51867.16
2023-03-26T14:57:49.710Z,51839.06
2023-03-26T15:01:04.184Z,51867.16
2023-03-26T15:04:13.452Z,51837.06
2023-03-26T15:07:24.274Z,51802.97
2023-03-26T15:10:16.698Z,51841.06
2023-03-26T15:13:13.404Z,51859.13
2023-03-26T15:16:13.920Z,51837.06
2023-03-26T15:19:34.495Z,51843.09
2023-03-26T15:22:29.063Z,51845.09
2023-03-26T15:25:46.005Z,51833.06
2023-03-26T15:29:06.785Z,51837.06
2023-03-26T15:31:58.273Z,51849.09
2023-03-26T15:34:54.664Z,51865.16
2023-03-26T15:37:41.116Z,51813.00
2023-03-26T15:40:48.988Z,51855.13
2023-03-26T15:43:29.176Z,51802.97
2023-03-26T15:46:26.296Z,51831.03
2023-03-26T15:49:14.497Z,51823.03
2023-03-26T15:51:51.934Z,51825.03
2023-03-26T15:54:30.386Z,51859.13
2023-03-26T15:57:17.749Z,51843.09
2023-03-26T16:00:18.675Z,51873.19
2023-03-26T16:03:13.969Z,51867.16
2023-03-26T16:06:14.326Z,51881.19
2023-03-26T16:08:56.002Z,51879.19
2023-03-26T16:11:53.196Z,51865.16
2023-03-26T16:14:24.141Z,51849.09
2023-03-26T16:17:00.556Z,51835.06
2023-03-26T16:19:52.844Z,51867.16
2023-03-26T16:22:51.755Z,51839.06
2023-03-26T16:25:29.508Z,51863.16
2023-03-26T16:31:37.571Z,51865.16
2023-03-26T16:34:27.546Z,51861.13
2023-03-26T16:37:00.058Z,51857.13
2023-03-26T16:40:20.187Z,51865.16
2023-03-26T16:42:55.516Z,51825.03
2023-03-26T16:45:34.362Z,51861.13
2023-03-26T16:48:15.348Z,51855.13
2023-03-26T16:51:11.535Z,51865.16
2023-03-26T16:53:57.961Z,51849.09
2023-03-26T16:56:52.233Z,51875.19
2023-03-26T16:59:40.083Z,51821.00
2023-03-26T17:02:29.541Z,51877.19
2023-03-26T17:05:09.272Z,51879.19
2023-03-26T17:08:07.115Z,51861.13
2023-03-26T17:10:40.973Z,51903.28
2023-03-26T17:13:20.381Z,51877.19
2023-03-26T17:16:05.713Z,51901.25
2023-03-26T17:18:44.548Z,51901.25
2023-03-26T17:21:28.904Z,51867.16
2023-03-26T17:24:26.541Z,51861.13
2023-03-26T17:27:30.753Z,51877.19
2023-03-26T17:30:04.981Z,51867.16
2023-03-26T17:32:57.561Z,51859.13
2023-03-26T17:35:42.061Z,51895.25
2023-03-26T17:38:50.025Z,51917.31
2023-03-26T17:41:57.464Z,51897.25
2023-03-26T17:44:44.850Z,51913.31
2023-03-26T17:47:30.010Z,51873.19
2023-03-26T17:50:02.798Z,51895.25
2023-03-26T17:52:42.691Z,51897.25
2023-03-26T17:55:17.714Z,51929.34
2023-03-26T17:57:50.733Z,51909.28
2023-03-26T18:00:23.760Z,51925.34
2023-03-26T18:02:57.198Z,51919.31
2023-03-26T18:05:29.271Z,51925.34
2023-03-26T18:08:27.779Z,51909.28
2023-03-26T18:11:12.241Z,51869.16
2023-03-26T18:14:06.324Z,51877.19
2023-03-26T18:16:42.230Z,51925.34
2023-03-26T18:19:18.333Z,51887.22
2023-03-26T18:21:50.223Z,51883.22
2023-03-26T18:24:24.367Z,51929.34
2023-03-26T18:26:58.354Z,51905.28
2023-03-26T18:29:28.895Z,51915.31
2023-03-26T18:32:02.367Z,51929.34
2023-03-26T18:34:33.192Z,51901.25
2023-03-26T18:37:16.353Z,51913.31
2023-03-26T18:39:58.918Z,51925.34
2023-03-26T18:42:29.299Z,51939.38
2023-03-26T18:44:59.456Z,51933.38
2023-03-26T18:47:31.464Z,51931.34
2023-03-26T18:50:00.774Z,51937.38
2023-03-26T18:52:32.662Z,51945.41
2023-03-26T18:55:04.034Z,51951.41
2023-03-26T18:57:32.450Z,51945.41
2023-03-26T19:00:16.051Z,51949.41
2023-03-26T19:02:48.118Z,51957.44
2023-03-26T19:05:19.604Z,51933.38
2023-03-26T19:07:48.305Z,51921.31
2023-03-26T19:10:21.160Z,51933.38
2023-03-26T19:12:56.478Z,51941.38
2023-03-26T19:15:26.932Z,51915.31
2023-03-26T19:18:03.889Z,51929.34
2023-03-26T19:20:40.512Z,51931.34
2023-03-26T19:23:15.141Z,51909.28
2023-03-26T19:25:47.534Z,51941.38
2023-03-26T19:28:20.608Z,51943.41
2023-03-26T19:30:55.329Z,51937.38
2023-03-26T19:33:32.997Z,51937.38
2023-03-26T19:36:04.974Z,51919.31
2023-03-26T19:38:39.628Z,51943.41
2023-03-26T19:41:21.937Z,51935.38
2023-03-26T19:43:51.733Z,51915.31
2023-03-26T19:46:22.461Z,51917.31
2023-03-26T19:48:54.347Z,51941.38
2023-03-26T19:51:25.591Z,51949.41
2023-03-26T19:53:55.789Z,51945.41
2023-03-26T19:56:24.581Z,51963.47
2023-03-26T19:58:53.073Z,51949.41
2023-03-26T20:01:23.775Z,51959.44
2023-03-26T20:03:57.667Z,51943.41
2023-03-26T20:06:42.383Z,51953.44
2023-03-26T20:09:12.201Z,51941.38
2023-03-26T20:11:40.947Z,51943.41
2023-03-26T20:14:14.724Z,51971.47
2023-03-26T20:16:45.547Z,51929.34
2023-03-26T20:19:16.589Z,51981.50
2023-03-26T20:21:45.857Z,51967.47
2023-03-26T20:24:16.234Z,51971.47
2023-03-26T20:26:45.146Z,51965.47
2023-03-26T20:29:14.293Z,51917.31
2023-03-26T20:31:43.229Z,51895.25
2023-03-26T20:34:17.718Z,51981.50
2023-03-26T20:36:46.715Z,51961.44
2023-03-26T20:39:15.507Z,51945.41
2023-03-26T20:41:46.529Z,51933.38
2023-03-26T20:44:16.829Z,51961.44
2023-03-26T20:46:48.138Z,51953.44
2023-03-26T20:49:18.697Z,51975.50
2023-03-26T20:51:47.628Z,51977.50
2023-03-26T20:54:18.555Z,51951.41
2023-03-26T20:56:49.138Z,51965.47
2023-03-26T20:59:22.343Z,51987.53
2023-03-26T21:01:51.928Z,51945.41
2023-03-26T21:04:22.892Z,51953.44
2023-03-26T21:06:55.354Z,51967.47
2023-03-26T21:09:34.065Z,51975.50
2023-03-26T21:12:06.056Z,51925.34
2023-03-26T21:14:39.206Z,51951.41
2023-03-26T21:17:13.706Z,51919.31
2023-03-26T21:19:44.938Z,51945.41
2023-03-26T21:22:25.668Z,51953.44
2023-03-26T21:25:11.597Z,51953.44
2023-03-26T21:27:52.807Z,51981.50
2023-03-26T21:30:22.138Z,51923.34
2023-03-26T21:32:51.397Z,51961.44
2023-03-26T21:35:22.176Z,51945.41
2023-03-26T21:37:51.295Z,51967.47
2023-03-26T21:40:21.019Z,51967.47
2023-03-26T21:42:51.605Z,51937.38
2023-03-26T21:45:21.645Z,51943.41
2023-03-26T21:47:50.876Z,52001.56
2023-03-26T21:50:23.332Z,51981.50
2023-03-26T21:52:52.579Z,51973.50
2023-03-26T21:55:22.630Z,51953.44
2023-03-26T21:58:09.940Z,51955.44
2023-03-26T22:00:47.349Z,51961.44
2023-03-26T22:03:22.531Z,51985.53
2023-03-26T22:06:00.584Z,51989.53
2023-03-26T22:08:31.926Z,51989.53
2023-03-26T22:11:00.594Z,51937.38
2023-03-26T22:13:29.061Z,51945.41
2023-03-26T22:15:57.818Z,51999.56
2023-03-26T22:18:30.068Z,51973.50
2023-03-26T22:21:01.270Z,51965.47
2023-03-26T22:23:34.064Z,51967.47
2023-03-26T22:26:02.809Z,51953.44
2023-03-26T22:28:31.795Z,51945.41
2023-03-26T22:31:00.392Z,51967.47
2023-03-26T22:33:28.879Z,51981.50
2023-03-26T22:35:57.282Z,51963.47
2023-03-26T22:38:27.060Z,51997.56
2023-03-26T22:40:56.737Z,51959.44
2023-03-26T22:43:26.053Z,51961.44
2023-03-26T22:45:55.050Z,51959.44
2023-03-26T22:48:24.268Z,51981.50
2023-03-26T22:51:01.411Z,51965.47
2023-03-26T22:53:31.792Z,51985.53
2023-03-26T22:56:00.988Z,51969.47
2023-03-26T22:58:29.979Z,51959.44
2023-03-26T23:01:03.184Z,51983.53
2023-03-26T23:03:35.093Z,51989.53
2023-03-26T23:06:06.759Z,51981.50
2023-03-26T23:08:38.098Z,51931.34
2023-03-26T23:11:10.181Z,51931.34
2023-03-26T23:13:38.669Z,51937.38
2023-03-26T23:16:08.440Z,51953.44
2023-03-26T23:18:37.687Z,51971.47
2023-03-26T23:21:11.981Z,51967.47
2023-03-26T23:23:42.818Z,51999.56
2023-03-26T23:26:11.732Z,51993.56
2023-03-26T23:28:40.833Z,51991.53
2023-03-26T23:31:11.997Z,51957.44
2023-03-26T23:33:45.642Z,51977.50
2023-03-26T23:36:17.639Z,51985.53
2023-03-26T23:38:48.937Z,51961.44
2023-03-26T23:41:21.339Z,51977.50
2023-03-26T23:43:55.586Z,51975.50
2023-03-26T23:46:25.676Z,51981.50
2023-03-26T23:48:54.934Z,52023.63
2023-03-26T23:51:23.967Z,51973.50
2023-03-26T23:53:54.584Z,51993.56
2023-03-26T23:56:23.601Z,51989.53
2023-03-26T23:58:52.801Z,51981.50
